sensor_id;sensor_type;location;lat;lon;timestamp;P1;durP1;ratioP1;P2;durP2;ratioP2
49942;SDS011;36011;53.362;58.948;2024-02-23T00:01:32;24.20;;;9.95;;
49942;SDS011;36011;53.362;58.948;2024-02-23T00:04:33;20.10;;;8.23;;
49942;SDS011;36011;53.362;58.948;2024-02-23T00:07:39;15.90;;;8.07;;
49942;SDS011;36011;53.362;58.948;2024-02-23T00:10:45;15.35;;;6.43;;
49942;SDS011;36011;53.362;58.948;2024-02-23T00:13:52;17.00;;;7.93;;
49942;SDS011;36011;53.362;58.948;2024-02-23T00:16:56;24.23;;;10.63;;
49942;SDS011;36011;53.362;58.948;2024-02-23T00:20:02;29.48;;;12.60;;
49942;SDS011;36011;53.362;58.948;2024-02-23T00:23:07;29.63;;;10.15;;
49942;SDS011;36011;53.362;58.948;2024-02-23T00:26:10;27.33;;;9.30;;
49942;SDS011;36011;53.362;58.948;2024-02-23T00:29:14;19.38;;;9.50;;
49942;SDS011;36011;53.362;58.948;2024-02-23T00:32:15;21.65;;;9.27;;
49942;SDS011;36011;53.362;58.948;2024-02-23T00:35:17;21.90;;;10.07;;
49942;SDS011;36011;53.362;58.948;2024-02-23T00:38:21;22.33;;;9.77;;
49942;SDS011;36011;53.362;58.948;2024-02-23T00:41:26;11.73;;;7.35;;
49942;SDS011;36011;53.362;58.948;2024-02-23T00:44:28;19.60;;;9.07;;
49942;SDS011;36011;53.362;58.948;2024-02-23T00:47:34;20.92;;;8.55;;
49942;SDS011;36011;53.362;58.948;2024-02-23T00:50:42;18.25;;;8.82;;
49942;SDS011;36011;53.362;58.948;2024-02-23T00:53:47;17.65;;;7.70;;
49942;SDS011;36011;53.362;58.948;2024-02-23T00:56:52;18.05;;;7.25;;
49942;SDS011;36011;53.362;58.948;2024-02-23T00:59:53;17.90;;;9.65;;
49942;SDS011;36011;53.362;58.948;2024-02-23T01:02:54;20.10;;;10.00;;
49942;SDS011;36011;53.362;58.948;2024-02-23T01:06:00;16.92;;;9.27;;
49942;SDS011;36011;53.362;58.948;2024-02-23T01:09:04;16.77;;;7.63;;
49942;SDS011;36011;53.362;58.948;2024-02-23T01:12:06;17.33;;;8.10;;
49942;SDS011;36011;53.362;58.948;2024-02-23T01:15:07;13.93;;;7.22;;
49942;SDS011;36011;53.362;58.948;2024-02-23T01:18:09;17.23;;;7.47;;
49942;SDS011;36011;53.362;58.948;2024-02-23T01:21:13;21.38;;;8.63;;
49942;SDS011;36011;53.362;58.948;2024-02-23T01:24:17;16.58;;;8.70;;
49942;SDS011;36011;53.362;58.948;2024-02-23T01:27:18;19.55;;;8.23;;
49942;SDS011;36011;53.362;58.948;2024-02-23T01:30:19;53.55;;;20.85;;
49942;SDS011;36011;53.362;58.948;2024-02-23T01:33:25;34.40;;;14.25;;
49942;SDS011;36011;53.362;58.948;2024-02-23T01:36:29;53.35;;;18.73;;
49942;SDS011;36011;53.362;58.948;2024-02-23T01:39:30;41.08;;;15.25;;
49942;SDS011;36011;53.362;58.948;2024-02-23T01:42:34;27.50;;;12.50;;
49942;SDS011;36011;53.362;58.948;2024-02-23T01:45:35;31.85;;;13.25;;
49942;SDS011;36011;53.362;58.948;2024-02-23T01:48:40;23.38;;;12.52;;
49942;SDS011;36011;53.362;58.948;2024-02-23T01:51:44;29.90;;;12.40;;
49942;SDS011;36011;53.362;58.948;2024-02-23T01:54:51;33.92;;;12.75;;
49942;SDS011;36011;53.362;58.948;2024-02-23T01:57:55;29.73;;;13.80;;
49942;SDS011;36011;53.362;58.948;2024-02-23T02:00:59;67.85;;;23.00;;
49942;SDS011;36011;53.362;58.948;2024-02-23T02:04:07;35.75;;;16.92;;
49942;SDS011;36011;53.362;58.948;2024-02-23T02:07:08;59.45;;;21.20;;
49942;SDS011;36011;53.362;58.948;2024-02-23T02:10:12;68.50;;;24.70;;
49942;SDS011;36011;53.362;58.948;2024-02-23T02:13:14;68.80;;;22.63;;
49942;SDS011;36011;53.362;58.948;2024-02-23T02:16:15;74.28;;;23.52;;
49942;SDS011;36011;53.362;58.948;2024-02-23T02:19:16;59.63;;;19.13;;
49942;SDS011;36011;53.362;58.948;2024-02-23T02:22:20;49.50;;;18.33;;
49942;SDS011;36011;53.362;58.948;2024-02-23T02:25:22;46.75;;;18.15;;
49942;SDS011;36011;53.362;58.948;2024-02-23T02:28:28;40.22;;;16.33;;
49942;SDS011;36011;53.362;58.948;2024-02-23T02:31:34;33.85;;;12.85;;
49942;SDS011;36011;53.362;58.948;2024-02-23T02:34:38;35.92;;;13.30;;
49942;SDS011;36011;53.362;58.948;2024-02-23T02:37:39;32.40;;;11.23;;
49942;SDS011;36011;53.362;58.948;2024-02-23T02:40:45;26.88;;;12.27;;
49942;SDS011;36011;53.362;58.948;2024-02-23T02:43:51;33.20;;;15.93;;
49942;SDS011;36011;53.362;58.948;2024-02-23T02:46:55;26.40;;;11.35;;
49942;SDS011;36011;53.362;58.948;2024-02-23T02:49:59;26.73;;;12.75;;
49942;SDS011;36011;53.362;58.948;2024-02-23T02:53:03;32.47;;;12.18;;
49942;SDS011;36011;53.362;58.948;2024-02-23T02:56:10;34.22;;;10.93;;
49942;SDS011;36011;53.362;58.948;2024-02-23T02:59:13;27.88;;;12.32;;
49942;SDS011;36011;53.362;58.948;2024-02-23T03:02:21;22.30;;;10.65;;
49942;SDS011;36011;53.362;58.948;2024-02-23T03:05:28;29.98;;;12.13;;
49942;SDS011;36011;53.362;58.948;2024-02-23T03:08:37;36.42;;;13.63;;
49942;SDS011;36011;53.362;58.948;2024-02-23T03:11:41;34.15;;;14.15;;
49942;SDS011;36011;53.362;58.948;2024-02-23T03:14:42;41.80;;;16.17;;
49942;SDS011;36011;53.362;58.948;2024-02-23T03:17:46;40.58;;;15.35;;
49942;SDS011;36011;53.362;58.948;2024-02-23T03:20:49;29.23;;;15.30;;
49942;SDS011;36011;53.362;58.948;2024-02-23T03:23:52;36.25;;;15.75;;
49942;SDS011;36011;53.362;58.948;2024-02-23T03:26:54;31.92;;;16.17;;
49942;SDS011;36011;53.362;58.948;2024-02-23T03:29:56;27.85;;;12.85;;
49942;SDS011;36011;53.362;58.948;2024-02-23T03:32:57;38.20;;;13.90;;
49942;SDS011;36011;53.362;58.948;2024-02-23T03:36:02;19.25;;;12.60;;
49942;SDS011;36011;53.362;58.948;2024-02-23T03:39:05;27.30;;;12.80;;
49942;SDS011;36011;53.362;58.948;2024-02-23T03:42:09;26.40;;;11.38;;
49942;SDS011;36011;53.362;58.948;2024-02-23T03:45:10;31.00;;;12.00;;
49942;SDS011;36011;53.362;58.948;2024-02-23T03:48:16;26.45;;;13.52;;
49942;SDS011;36011;53.362;58.948;2024-02-23T03:51:18;37.33;;;13.38;;
49942;SDS011;36011;53.362;58.948;2024-02-23T03:54:24;29.02;;;13.63;;
49942;SDS011;36011;53.362;58.948;2024-02-23T03:57:34;28.15;;;12.77;;
49942;SDS011;36011;53.362;58.948;2024-02-23T04:00:36;31.75;;;13.18;;
49942;SDS011;36011;53.362;58.948;2024-02-23T04:03:40;43.75;;;14.20;;
49942;SDS011;36011;53.362;58.948;2024-02-23T04:06:48;42.13;;;15.98;;
49942;SDS011;36011;53.362;58.948;2024-02-23T04:09:54;51.97;;;17.65;;
49942;SDS011;36011;53.362;58.948;2024-02-23T04:12:58;45.95;;;17.20;;
49942;SDS011;36011;53.362;58.948;2024-02-23T04:16:01;38.42;;;16.85;;
49942;SDS011;36011;53.362;58.948;2024-02-23T04:19:06;56.70;;;19.85;;
49942;SDS011;36011;53.362;58.948;2024-02-23T04:22:07;42.47;;;16.63;;
49942;SDS011;36011;53.362;58.948;2024-02-23T04:25:10;49.85;;;21.00;;
49942;SDS011;36011;53.362;58.948;2024-02-23T04:28:15;41.38;;;19.65;;
49942;SDS011;36011;53.362;58.948;2024-02-23T04:31:16;53.67;;;23.42;;
49942;SDS011;36011;53.362;58.948;2024-02-23T04:34:17;52.78;;;19.42;;
49942;SDS011;36011;53.362;58.948;2024-02-23T04:37:19;54.85;;;21.20;;
49942;SDS011;36011;53.362;58.948;2024-02-23T04:40:25;61.17;;;21.52;;
49942;SDS011;36011;53.362;58.948;2024-02-23T04:43:31;52.30;;;21.02;;
49942;SDS011;36011;53.362;58.948;2024-02-23T04:46:37;43.65;;;19.05;;
49942;SDS011;36011;53.362;58.948;2024-02-23T04:49:46;47.42;;;19.30;;
49942;SDS011;36011;53.362;58.948;2024-02-23T04:52:50;63.55;;;27.48;;
49942;SDS011;36011;53.362;58.948;2024-02-23T04:55:52;49.92;;;20.00;;
49942;SDS011;36011;53.362;58.948;2024-02-23T04:58:55;55.75;;;22.20;;
49942;SDS011;36011;53.362;58.948;2024-02-23T05:01:57;44.28;;;20.55;;
49942;SDS011;36011;53.362;58.948;2024-02-23T05:05:04;62.40;;;28.65;;
49942;SDS011;36011;53.362;58.948;2024-02-23T05:08:08;57.38;;;22.83;;
49942;SDS011;36011;53.362;58.948;2024-02-23T05:11:10;42.38;;;18.35;;
49942;SDS011;36011;53.362;58.948;2024-02-23T05:14:20;52.08;;;19.35;;
49942;SDS011;36011;53.362;58.948;2024-02-23T05:17:27;46.95;;;16.85;;
49942;SDS011;36011;53.362;58.948;2024-02-23T05:20:30;42.20;;;17.73;;
49942;SDS011;36011;53.362;58.948;2024-02-23T05:23:34;47.97;;;15.15;;
49942;SDS011;36011;53.362;58.948;2024-02-23T05:26:41;38.63;;;15.13;;
49942;SDS011;36011;53.362;58.948;2024-02-23T05:29:45;42.75;;;16.52;;
49942;SDS011;36011;53.362;58.948;2024-02-23T05:35:56;29.70;;;13.93;;
49942;SDS011;36011;53.362;58.948;2024-02-23T05:39:01;33.70;;;13.40;;
49942;SDS011;36011;53.362;58.948;2024-02-23T05:42:02;37.10;;;13.52;;
49942;SDS011;36011;53.362;58.948;2024-02-23T05:45:04;42.58;;;14.30;;
49942;SDS011;36011;53.362;58.948;2024-02-23T05:48:09;39.72;;;16.42;;
49942;SDS011;36011;53.362;58.948;2024-02-23T05:51:12;39.72;;;13.98;;
49942;SDS011;36011;53.362;58.948;2024-02-23T05:54:19;43.20;;;16.13;;
49942;SDS011;36011;53.362;58.948;2024-02-23T05:57:22;45.58;;;15.57;;
49942;SDS011;36011;53.362;58.948;2024-02-23T06:00:26;45.63;;;15.10;;
49942;SDS011;36011;53.362;58.948;2024-02-23T06:03:31;44.38;;;17.42;;
49942;SDS011;36011;53.362;58.948;2024-02-23T06:06:32;60.80;;;25.90;;
49942;SDS011;36011;53.362;58.948;2024-02-23T06:09:37;88.57;;;36.00;;
49942;SDS011;36011;53.362;58.948;2024-02-23T06:12:42;94.30;;;44.17;;
49942;SDS011;36011;53.362;58.948;2024-02-23T06:15:51;128.68;;;64.25;;
49942;SDS011;36011;53.362;58.948;2024-02-23T06:22:46;193.18;;;103.03;;
49942;SDS011;36011;53.362;58.948;2024-02-23T06:25:54;214.82;;;114.45;;
49942;SDS011;36011;53.362;58.948;2024-02-23T06:29:01;229.45;;;124.35;;
49942;SDS011;36011;53.362;58.948;2024-02-23T06:32:05;230.10;;;127.13;;
49942;SDS011;36011;53.362;58.948;2024-02-23T06:35:07;236.05;;;130.93;;
49942;SDS011;36011;53.362;58.948;2024-02-23T06:38:09;216.13;;;119.75;;
49942;SDS011;36011;53.362;58.948;2024-02-23T06:41:16;217.27;;;121.55;;
49942;SDS011;36011;53.362;58.948;2024-02-23T06:44:26;189.73;;;103.53;;
49942;SDS011;36011;53.362;58.948;2024-02-23T06:47:30;183.40;;;105.43;;
49942;SDS011;36011;53.362;58.948;2024-02-23T06:50:36;170.13;;;98.90;;
49942;SDS011;36011;53.362;58.948;2024-02-23T06:53:44;142.13;;;83.68;;
49942;SDS011;36011;53.362;58.948;2024-02-23T06:56:50;140.85;;;76.88;;
49942;SDS011;36011;53.362;58.948;2024-02-23T06:59:55;133.93;;;76.50;;
49942;SDS011;36011;53.362;58.948;2024-02-23T07:02:57;125.55;;;69.40;;
49942;SDS011;36011;53.362;58.948;2024-02-23T07:06:06;104.97;;;58.90;;
49942;SDS011;36011;53.362;58.948;2024-02-23T07:09:10;75.78;;;45.53;;
49942;SDS011;36011;53.362;58.948;2024-02-23T07:12:17;94.90;;;50.65;;
49942;SDS011;36011;53.362;58.948;2024-02-23T07:15:21;75.93;;;42.53;;
49942;SDS011;36011;53.362;58.948;2024-02-23T07:18:23;74.07;;;43.10;;
49942;SDS011;36011;53.362;58.948;2024-02-23T07:21:29;79.10;;;45.75;;
49942;SDS011;36011;53.362;58.948;2024-02-23T07:24:41;75.25;;;43.13;;
49942;SDS011;36011;53.362;58.948;2024-02-23T07:27:45;71.65;;;43.38;;
49942;SDS011;36011;53.362;58.948;2024-02-23T07:30:55;77.50;;;44.55;;
49942;SDS011;36011;53.362;58.948;2024-02-23T07:33:58;78.65;;;44.58;;
49942;SDS011;36011;53.362;58.948;2024-02-23T07:37:02;80.38;;;47.13;;
49942;SDS011;36011;53.362;58.948;2024-02-23T07:40:05;91.18;;;51.65;;
49942;SDS011;36011;53.362;58.948;2024-02-23T07:43:07;95.38;;;48.97;;
49942;SDS011;36011;53.362;58.948;2024-02-23T07:46:12;85.93;;;48.53;;
49942;SDS011;36011;53.362;58.948;2024-02-23T07:49:17;76.97;;;42.78;;
49942;SDS011;36011;53.362;58.948;2024-02-23T07:52:23;75.63;;;40.13;;
49942;SDS011;36011;53.362;58.948;2024-02-23T07:55:30;59.92;;;36.42;;
49942;SDS011;36011;53.362;58.948;2024-02-23T07:58:34;52.47;;;29.25;;
49942;SDS011;36011;53.362;58.948;2024-02-23T08:01:39;46.25;;;24.10;;
49942;SDS011;36011;53.362;58.948;2024-02-23T08:04:44;44.38;;;24.13;;
49942;SDS011;36011;53.362;58.948;2024-02-23T08:07:45;40.05;;;24.98;;
49942;SDS011;36011;53.362;58.948;2024-02-23T08:10:51;47.22;;;26.60;;
49942;SDS011;36011;53.362;58.948;2024-02-23T08:13:56;52.28;;;30.35;;
49942;SDS011;36011;53.362;58.948;2024-02-23T08:16:57;55.40;;;34.10;;
49942;SDS011;36011;53.362;58.948;2024-02-23T08:20:02;62.25;;;35.50;;
49942;SDS011;36011;53.362;58.948;2024-02-23T08:23:09;57.22;;;29.23;;
49942;SDS011;36011;53.362;58.948;2024-02-23T08:26:10;41.40;;;28.77;;
49942;SDS011;36011;53.362;58.948;2024-02-23T08:29:18;53.78;;;30.80;;
49942;SDS011;36011;53.362;58.948;2024-02-23T08:32:28;57.13;;;30.08;;
49942;SDS011;36011;53.362;58.948;2024-02-23T08:35:31;32.08;;;20.30;;
49942;SDS011;36011;53.362;58.948;2024-02-23T08:38:36;40.38;;;23.55;;
49942;SDS011;36011;53.362;58.948;2024-02-23T08:41:44;36.70;;;20.88;;
49942;SDS011;36011;53.362;58.948;2024-02-23T08:44:45;62.22;;;36.13;;
49942;SDS011;36011;53.362;58.948;2024-02-23T08:47:49;48.05;;;26.10;;
49942;SDS011;36011;53.362;58.948;2024-02-23T08:50:54;41.72;;;23.23;;
49942;SDS011;36011;53.362;58.948;2024-02-23T08:53:58;40.67;;;22.52;;
49942;SDS011;36011;53.362;58.948;2024-02-23T08:57:07;39.70;;;20.98;;
49942;SDS011;36011;53.362;58.948;2024-02-23T09:00:11;41.75;;;21.50;;
49942;SDS011;36011;53.362;58.948;2024-02-23T09:03:15;39.63;;;21.50;;
49942;SDS011;36011;53.362;58.948;2024-02-23T09:06:16;34.33;;;20.92;;
49942;SDS011;36011;53.362;58.948;2024-02-23T09:09:23;36.28;;;19.40;;
49942;SDS011;36011;53.362;58.948;2024-02-23T09:12:26;25.77;;;14.13;;
49942;SDS011;36011;53.362;58.948;2024-02-23T09:15:31;27.80;;;16.13;;
49942;SDS011;36011;53.362;58.948;2024-02-23T09:18:35;25.45;;;13.50;;
49942;SDS011;36011;53.362;58.948;2024-02-23T09:21:39;25.63;;;13.75;;
49942;SDS011;36011;53.362;58.948;2024-02-23T09:24:44;23.02;;;12.98;;
49942;SDS011;36011;53.362;58.948;2024-02-23T09:27:48;23.63;;;13.73;;
49942;SDS011;36011;53.362;58.948;2024-02-23T09:30:52;23.45;;;12.52;;
49942;SDS011;36011;53.362;58.948;2024-02-23T09:33:59;28.27;;;16.00;;
49942;SDS011;36011;53.362;58.948;2024-02-23T09:37:01;30.75;;;14.48;;
49942;SDS011;36011;53.362;58.948;2024-02-23T09:40:06;25.45;;;13.32;;
49942;SDS011;36011;53.362;58.948;2024-02-23T09:43:13;25.08;;;12.07;;
49942;SDS011;36011;53.362;58.948;2024-02-23T09:46:17;20.50;;;11.93;;
49942;SDS011;36011;53.362;58.948;2024-02-23T09:49:22;22.58;;;12.32;;
49942;SDS011;36011;53.362;58.948;2024-02-23T09:52:24;18.40;;;9.18;;
49942;SDS011;36011;53.362;58.948;2024-02-23T09:55:32;10.50;;;5.65;;
49942;SDS011;36011;53.362;58.948;2024-02-23T09:58:39;18.05;;;7.72;;
49942;SDS011;36011;53.362;58.948;2024-02-23T10:01:45;9.07;;;5.32;;
49942;SDS011;36011;53.362;58.948;2024-02-23T10:04:50;9.45;;;4.97;;
49942;SDS011;36011;53.362;58.948;2024-02-23T10:07:56;14.60;;;7.43;;
49942;SDS011;36011;53.362;58.948;2024-02-23T10:11:04;15.55;;;7.20;;
49942;SDS011;36011;53.362;58.948;2024-02-23T10:14:12;12.23;;;6.00;;
49942;SDS011;36011;53.362;58.948;2024-02-23T10:17:20;10.57;;;4.57;;
49942;SDS011;36011;53.362;58.948;2024-02-23T10:20:24;10.05;;;4.55;;
49942;SDS011;36011;53.362;58.948;2024-02-23T10:23:32;9.10;;;3.97;;
49942;SDS011;36011;53.362;58.948;2024-02-23T10:26:39;8.35;;;3.80;;
49942;SDS011;36011;53.362;58.948;2024-02-23T10:29:41;5.90;;;3.78;;
49942;SDS011;36011;53.362;58.948;2024-02-23T10:32:45;9.05;;;5.00;;
49942;SDS011;36011;53.362;58.948;2024-02-23T10:35:52;10.48;;;5.20;;
49942;SDS011;36011;53.362;58.948;2024-02-23T10:39:01;7.22;;;3.53;;
49942;SDS011;36011;53.362;58.948;2024-02-23T10:42:09;7.13;;;3.65;;
49942;SDS011;36011;53.362;58.948;2024-02-23T10:45:15;5.95;;;3.60;;
49942;SDS011;36011;53.362;58.948;2024-02-23T10:48:20;6.82;;;4.30;;
49942;SDS011;36011;53.362;58.948;2024-02-23T10:51:25;9.35;;;4.40;;
49942;SDS011;36011;53.362;58.948;2024-02-23T10:54:31;8.77;;;4.47;;
49942;SDS011;36011;53.362;58.948;2024-02-23T10:57:37;7.90;;;3.97;;
49942;SDS011;36011;53.362;58.948;2024-02-23T11:00:40;7.25;;;3.67;;
49942;SDS011;36011;53.362;58.948;2024-02-23T11:03:46;7.35;;;3.78;;
49942;SDS011;36011;53.362;58.948;2024-02-23T11:06:54;5.55;;;3.40;;
49942;SDS011;36011;53.362;58.948;2024-02-23T11:09:59;9.60;;;4.65;;
49942;SDS011;36011;53.362;58.948;2024-02-23T11:13:07;11.07;;;5.60;;
49942;SDS011;36011;53.362;58.948;2024-02-23T11:16:21;9.90;;;4.90;;
49942;SDS011;36011;53.362;58.948;2024-02-23T11:19:34;9.85;;;3.83;;
49942;SDS011;36011;53.362;58.948;2024-02-23T11:22:43;9.02;;;4.70;;
49942;SDS011;36011;53.362;58.948;2024-02-23T11:26:03;15.18;;;6.20;;
49942;SDS011;36011;53.362;58.948;2024-02-23T11:29:10;12.27;;;5.90;;
49942;SDS011;36011;53.362;58.948;2024-02-23T11:32:18;9.95;;;5.97;;
49942;SDS011;36011;53.362;58.948;2024-02-23T11:35:19;13.20;;;7.18;;
49942;SDS011;36011;53.362;58.948;2024-02-23T11:38:21;13.93;;;8.57;;
49942;SDS011;36011;53.362;58.948;2024-02-23T11:41:25;20.88;;;8.68;;
49942;SDS011;36011;53.362;58.948;2024-02-23T11:44:30;12.40;;;7.25;;
49942;SDS011;36011;53.362;58.948;2024-02-23T11:47:36;13.15;;;7.13;;
49942;SDS011;36011;53.362;58.948;2024-02-23T11:50:42;14.77;;;7.45;;
49942;SDS011;36011;53.362;58.948;2024-02-23T11:53:47;17.15;;;7.53;;
49942;SDS011;36011;53.362;58.948;2024-02-23T11:56:51;15.13;;;7.32;;
49942;SDS011;36011;53.362;58.948;2024-02-23T11:59:55;13.57;;;6.68;;
49942;SDS011;36011;53.362;58.948;2024-02-23T12:02:57;18.85;;;8.27;;
49942;SDS011;36011;53.362;58.948;2024-02-23T12:05:58;13.95;;;7.22;;
49942;SDS011;36011;53.362;58.948;2024-02-23T12:09:04;17.55;;;6.78;;
49942;SDS011;36011;53.362;58.948;2024-02-23T12:12:05;16.40;;;7.78;;
49942;SDS011;36011;53.362;58.948;2024-02-23T12:15:09;16.75;;;8.15;;
49942;SDS011;36011;53.362;58.948;2024-02-23T12:18:13;24.52;;;9.18;;
49942;SDS011;36011;53.362;58.948;2024-02-23T12:21:20;23.05;;;8.98;;
49942;SDS011;36011;53.362;58.948;2024-02-23T12:24:25;14.77;;;7.18;;
49942;SDS011;36011;53.362;58.948;2024-02-23T12:27:28;20.00;;;8.13;;
49942;SDS011;36011;53.362;58.948;2024-02-23T12:33:34;19.45;;;8.60;;
49942;SDS011;36011;53.362;58.948;2024-02-23T12:36:45;14.73;;;7.97;;
49942;SDS011;36011;53.362;58.948;2024-02-23T12:39:47;15.73;;;8.80;;
49942;SDS011;36011;53.362;58.948;2024-02-23T12:42:55;16.05;;;9.07;;
49942;SDS011;36011;53.362;58.948;2024-02-23T12:45:57;18.70;;;8.88;;
49942;SDS011;36011;53.362;58.948;2024-02-23T12:49:02;21.02;;;8.15;;
49942;SDS011;36011;53.362;58.948;2024-02-23T12:52:05;17.85;;;8.15;;
49942;SDS011;36011;53.362;58.948;2024-02-23T12:55:06;16.95;;;7.70;;
49942;SDS011;36011;53.362;58.948;2024-02-23T12:58:09;18.60;;;8.82;;
49942;SDS011;36011;53.362;58.948;2024-02-23T13:01:16;13.95;;;7.43;;
49942;SDS011;36011;53.362;58.948;2024-02-23T13:04:17;19.40;;;8.15;;
49942;SDS011;36011;53.362;58.948;2024-02-23T13:07:18;16.17;;;8.23;;
49942;SDS011;36011;53.362;58.948;2024-02-23T13:10:29;19.30;;;7.93;;
49942;SDS011;36011;53.362;58.948;2024-02-23T13:13:35;13.60;;;7.57;;
49942;SDS011;36011;53.362;58.948;2024-02-23T13:16:37;13.50;;;7.32;;
49942;SDS011;36011;53.362;58.948;2024-02-23T13:19:40;13.90;;;6.43;;
49942;SDS011;36011;53.362;58.948;2024-02-23T13:22:43;15.15;;;6.82;;
49942;SDS011;36011;53.362;58.948;2024-02-23T13:25:50;16.45;;;6.10;;
49942;SDS011;36011;53.362;58.948;2024-02-23T13:28:53;15.45;;;7.18;;
49942;SDS011;36011;53.362;58.948;2024-02-23T13:32:00;25.30;;;11.07;;
49942;SDS011;36011;53.362;58.948;2024-02-23T13:35:06;23.95;;;10.43;;
49942;SDS011;36011;53.362;58.948;2024-02-23T13:38:13;20.25;;;9.60;;
49942;SDS011;36011;53.362;58.948;2024-02-23T13:41:14;27.42;;;10.40;;
49942;SDS011;36011;53.362;58.948;2024-02-23T13:44:18;18.05;;;8.23;;
49942;SDS011;36011;53.362;58.948;2024-02-23T13:47:22;22.95;;;9.98;;
49942;SDS011;36011;53.362;58.948;2024-02-23T13:50:23;24.00;;;10.77;;
49942;SDS011;36011;53.362;58.948;2024-02-23T13:53:29;31.17;;;10.05;;
49942;SDS011;36011;53.362;58.948;2024-02-23T13:56:34;19.52;;;7.97;;
49942;SDS011;36011;53.362;58.948;2024-02-23T13:59:41;18.08;;;6.97;;
49942;SDS011;36011;53.362;58.948;2024-02-23T14:02:44;17.48;;;7.60;;
49942;SDS011;36011;53.362;58.948;2024-02-23T14:05:50;18.30;;;6.95;;
49942;SDS011;36011;53.362;58.948;2024-02-23T14:08:54;20.08;;;6.88;;
49942;SDS011;36011;53.362;58.948;2024-02-23T14:11:59;13.00;;;6.13;;
49942;SDS011;36011;53.362;58.948;2024-02-23T14:15:03;16.80;;;7.07;;
49942;SDS011;36011;53.362;58.948;2024-02-23T14:18:06;21.75;;;9.00;;
49942;SDS011;36011;53.362;58.948;2024-02-23T14:21:10;20.73;;;9.48;;
49942;SDS011;36011;53.362;58.948;2024-02-23T14:24:16;23.75;;;10.23;;
49942;SDS011;36011;53.362;58.948;2024-02-23T14:27:17;31.75;;;11.32;;
49942;SDS011;36011;53.362;58.948;2024-02-23T14:30:22;20.88;;;9.95;;
49942;SDS011;36011;53.362;58.948;2024-02-23T14:33:26;20.58;;;11.27;;
49942;SDS011;36011;53.362;58.948;2024-02-23T14:36:30;22.95;;;11.23;;
49942;SDS011;36011;53.362;58.948;2024-02-23T14:39:37;40.83;;;16.67;;
49942;SDS011;36011;53.362;58.948;2024-02-23T14:42:41;26.00;;;11.85;;
49942;SDS011;36011;53.362;58.948;2024-02-23T14:45:42;25.25;;;12.48;;
49942;SDS011;36011;53.362;58.948;2024-02-23T14:48:46;26.20;;;12.35;;
49942;SDS011;36011;53.362;58.948;2024-02-23T14:51:54;43.03;;;14.82;;
49942;SDS011;36011;53.362;58.948;2024-02-23T14:54:55;45.75;;;18.73;;
49942;SDS011;36011;53.362;58.948;2024-02-23T14:58:04;53.35;;;22.90;;
49942;SDS011;36011;53.362;58.948;2024-02-23T15:01:08;58.58;;;22.38;;
49942;SDS011;36011;53.362;58.948;2024-02-23T15:04:12;66.97;;;23.13;;
49942;SDS011;36011;53.362;58.948;2024-02-23T15:07:19;57.83;;;25.92;;
49942;SDS011;36011;53.362;58.948;2024-02-23T15:10:24;61.42;;;25.50;;
49942;SDS011;36011;53.362;58.948;2024-02-23T15:13:25;54.13;;;26.20;;
49942;SDS011;36011;53.362;58.948;2024-02-23T15:16:27;71.38;;;26.83;;
49942;SDS011;36011;53.362;58.948;2024-02-23T15:19:38;54.83;;;24.45;;
49942;SDS011;36011;53.362;58.948;2024-02-23T15:22:43;65.85;;;27.23;;
49942;SDS011;36011;53.362;58.948;2024-02-23T15:25:50;77.25;;;28.35;;
49942;SDS011;36011;53.362;58.948;2024-02-23T15:28:52;83.93;;;31.35;;
49942;SDS011;36011;53.362;58.948;2024-02-23T15:31:54;74.38;;;28.85;;
49942;SDS011;36011;53.362;58.948;2024-02-23T15:35:01;87.82;;;29.02;;
49942;SDS011;36011;53.362;58.948;2024-02-23T15:38:07;78.30;;;29.17;;
49942;SDS011;36011;53.362;58.948;2024-02-23T15:41:11;84.30;;;31.02;;
49942;SDS011;36011;53.362;58.948;2024-02-23T15:44:19;76.75;;;28.38;;
49942;SDS011;36011;53.362;58.948;2024-02-23T15:47:20;57.38;;;24.30;;
49942;SDS011;36011;53.362;58.948;2024-02-23T15:50:28;71.20;;;24.95;;
49942;SDS011;36011;53.362;58.948;2024-02-23T15:53:31;85.53;;;34.42;;
49942;SDS011;36011;53.362;58.948;2024-02-23T15:56:36;99.75;;;34.60;;
49942;SDS011;36011;53.362;58.948;2024-02-23T15:59:43;129.98;;;42.60;;
49942;SDS011;36011;53.362;58.948;2024-02-23T16:02:46;131.48;;;48.05;;
49942;SDS011;36011;53.362;58.948;2024-02-23T16:05:49;140.52;;;45.30;;
49942;SDS011;36011;53.362;58.948;2024-02-23T16:08:53;156.70;;;48.80;;
49942;SDS011;36011;53.362;58.948;2024-02-23T16:11:56;144.50;;;47.42;;
49942;SDS011;36011;53.362;58.948;2024-02-23T16:15:00;124.60;;;43.67;;
49942;SDS011;36011;53.362;58.948;2024-02-23T16:18:05;117.57;;;39.03;;
49942;SDS011;36011;53.362;58.948;2024-02-23T16:21:08;116.22;;;38.60;;
49942;SDS011;36011;53.362;58.948;2024-02-23T16:24:19;104.00;;;33.88;;
49942;SDS011;36011;53.362;58.948;2024-02-23T16:27:23;85.50;;;32.67;;
49942;SDS011;36011;53.362;58.948;2024-02-23T16:30:24;81.38;;;29.27;;
49942;SDS011;36011;53.362;58.948;2024-02-23T16:33:29;61.22;;;25.52;;
49942;SDS011;36011;53.362;58.948;2024-02-23T16:36:35;72.57;;;26.30;;
49942;SDS011;36011;53.362;58.948;2024-02-23T16:39:37;64.72;;;24.83;;
49942;SDS011;36011;53.362;58.948;2024-02-23T16:42:43;67.60;;;25.35;;
49942;SDS011;36011;53.362;58.948;2024-02-23T16:45:48;68.00;;;26.55;;
49942;SDS011;36011;53.362;58.948;2024-02-23T16:49:02;56.63;;;25.02;;
49942;SDS011;36011;53.362;58.948;2024-02-23T16:52:07;63.58;;;25.23;;
49942;SDS011;36011;53.362;58.948;2024-02-23T16:55:15;62.63;;;25.83;;
49942;SDS011;36011;53.362;58.948;2024-02-23T16:58:20;66.88;;;25.30;;
49942;SDS011;36011;53.362;58.948;2024-02-23T17:01:23;70.77;;;23.00;;
49942;SDS011;36011;53.362;58.948;2024-02-23T17:04:25;50.30;;;20.75;;
49942;SDS011;36011;53.362;58.948;2024-02-23T17:07:27;43.05;;;18.58;;
49942;SDS011;36011;53.362;58.948;2024-02-23T17:10:32;49.35;;;19.48;;
49942;SDS011;36011;53.362;58.948;2024-02-23T17:13:39;49.30;;;19.58;;
49942;SDS011;36011;53.362;58.948;2024-02-23T17:16:44;52.75;;;20.08;;
49942;SDS011;36011;53.362;58.948;2024-02-23T17:19:46;49.58;;;20.77;;
49942;SDS011;36011;53.362;58.948;2024-02-23T17:25:51;67.95;;;23.45;;
49942;SDS011;36011;53.362;58.948;2024-02-23T17:28:56;68.43;;;25.13;;
49942;SDS011;36011;53.362;58.948;2024-02-23T17:32:00;58.80;;;22.20;;
49942;SDS011;36011;53.362;58.948;2024-02-23T17:35:07;48.47;;;19.80;;
49942;SDS011;36011;53.362;58.948;2024-02-23T17:38:15;44.15;;;17.25;;
49942;SDS011;36011;53.362;58.948;2024-02-23T17:41:22;37.42;;;15.15;;
49942;SDS011;36011;53.362;58.948;2024-02-23T17:44:29;61.08;;;24.40;;
49942;SDS011;36011;53.362;58.948;2024-02-23T17:47:35;53.10;;;19.63;;
49942;SDS011;36011;53.362;58.948;2024-02-23T17:50:39;44.05;;;18.42;;
49942;SDS011;36011;53.362;58.948;2024-02-23T17:53:40;49.60;;;18.02;;
49942;SDS011;36011;53.362;58.948;2024-02-23T17:56:42;38.42;;;15.40;;
49942;SDS011;36011;53.362;58.948;2024-02-23T17:59:46;33.70;;;13.65;;